createdAt,value
2023-05-18T00:02:09.945Z,2.80
2023-05-18T00:05:12.324Z,2.87
2023-05-18T00:08:14.262Z,2.83
2023-05-18T00:11:16.304Z,3.10
2023-05-18T00:14:18.437Z,3.20
2023-05-18T00:17:20.740Z,3.00
2023-05-18T00:20:22.702Z,2.87
2023-05-18T00:23:33.523Z,3.30
2023-05-18T00:26:35.786Z,3.60
2023-05-18T00:29:37.729Z,3.37
2023-05-18T00:32:39.774Z,3.10
2023-05-18T00:35:41.758Z,2.97
2023-05-18T00:38:44.264Z,2.80
2023-05-18T00:41:46.229Z,3.27
2023-05-18T00:44:48.345Z,3.40
2023-05-18T00:47:51.089Z,3.30
2023-05-18T00:50:53.020Z,3.97
2023-05-18T00:53:57.514Z,4.10
2023-05-18T00:57:03.126Z,4.10
2023-05-18T01:00:10.945Z,3.80
2023-05-18T01:03:15.755Z,4.10
2023-05-18T01:06:18.579Z,3.27
2023-05-18T01:09:20.643Z,3.23
2023-05-18T01:12:30.335Z,3.97
2023-05-18T01:15:34.948Z,3.50
2023-05-18T01:18:59.324Z,3.03
2023-05-18T01:22:17.684Z,2.67
2023-05-18T01:25:53.786Z,2.93
2023-05-18T01:28:59.114Z,2.90
2023-05-18T01:32:01.103Z,3.00
2023-05-18T01:35:03.081Z,3.23
2023-05-18T01:38:05.166Z,2.37
2023-05-18T01:41:23.123Z,3.10
2023-05-18T01:44:30.095Z,2.53
2023-05-18T01:47:32.475Z,3.37
2023-05-18T01:50:39.805Z,3.30
2023-05-18T01:53:49.267Z,2.87
2023-05-18T01:56:53.005Z,3.10
2023-05-18T01:59:55.655Z,3.07
2023-05-18T02:02:58.219Z,3.17
2023-05-18T02:06:00.583Z,3.97
2023-05-18T02:09:03.313Z,3.40
2023-05-18T02:12:05.753Z,3.60
2023-05-18T02:15:08.305Z,3.83
2023-05-18T02:18:10.206Z,3.33
2023-05-18T02:21:13.995Z,3.73
2023-05-18T02:24:15.996Z,3.67
2023-05-18T02:27:17.919Z,3.00
2023-05-18T02:30:20.037Z,3.67
2023-05-18T02:33:26.673Z,3.37
2023-05-18T02:36:37.540Z,3.10
2023-05-18T02:39:40.142Z,3.07
2023-05-18T02:42:42.597Z,2.90
2023-05-18T02:45:44.549Z,2.87
2023-05-18T02:48:46.431Z,3.23
2023-05-18T02:51:48.855Z,3.13
2023-05-18T02:54:51.235Z,2.93
2023-05-18T02:57:57.391Z,2.87
2023-05-18T03:01:00.607Z,3.00
2023-05-18T03:04:02.704Z,2.80
2023-05-18T03:07:04.711Z,2.87
2023-05-18T03:10:08.031Z,2.80
2023-05-18T03:13:09.962Z,2.90
2023-05-18T03:16:11.947Z,3.27
2023-05-18T03:19:16.214Z,3.33
2023-05-18T03:22:18.265Z,2.90
2023-05-18T03:25:20.222Z,2.63
2023-05-18T03:28:22.799Z,2.90
2023-05-18T03:31:25.361Z,2.90
2023-05-18T03:34:27.346Z,2.80
2023-05-18T03:37:29.395Z,3.07
2023-05-18T03:40:31.816Z,3.27
2023-05-18T03:43:33.771Z,3.13
2023-05-18T03:46:36.037Z,3.33
2023-05-18T03:49:38.045Z,3.93
2023-05-18T03:52:41.771Z,3.87
2023-05-18T03:55:44.462Z,3.70
2023-05-18T03:58:46.929Z,3.67
2023-05-18T04:01:54.175Z,3.80
2023-05-18T04:04:58.392Z,3.53
2023-05-18T04:08:00.371Z,3.10
2023-05-18T04:11:02.412Z,3.67
2023-05-18T04:14:04.386Z,3.47
2023-05-18T04:17:06.981Z,3.13
2023-05-18T04:20:13.617Z,3.70
2023-05-18T04:23:15.972Z,3.70
2023-05-18T04:26:20.431Z,3.30
2023-05-18T04:29:22.683Z,3.40
2023-05-18T04:32:27.423Z,2.90
2023-05-18T04:35:32.126Z,3.40
2023-05-18T04:38:34.972Z,3.37
2023-05-18T04:41:37.263Z,3.00
2023-05-18T04:44:39.814Z,3.30
2023-05-18T04:47:41.703Z,3.30
2023-05-18T04:50:43.761Z,3.53
2023-05-18T04:53:46.285Z,4.07
2023-05-18T04:56:48.600Z,3.87
2023-05-18T04:59:50.475Z,4.20
2023-05-18T05:02:52.892Z,4.87
2023-05-18T05:05:54.849Z,5.10
2023-05-18T05:08:56.995Z,5.20
2023-05-18T05:11:59.168Z,4.17
2023-05-18T05:15:01.262Z,4.57
2023-05-18T05:18:03.143Z,4.63
2023-05-18T05:21:05.070Z,4.10
2023-05-18T05:24:08.624Z,3.90
2023-05-18T05:27:10.687Z,4.27
2023-05-18T05:30:13.559Z,4.27
2023-05-18T05:33:15.622Z,4.17
2023-05-18T05:36:17.658Z,4.40
2023-05-18T05:39:19.550Z,3.47
2023-05-18T05:42:21.740Z,3.80
2023-05-18T05:45:24.347Z,4.50
2023-05-18T05:48:26.372Z,4.73
2023-05-18T05:51:28.328Z,5.40
2023-05-18T05:54:30.780Z,5.70
2023-05-18T05:57:33.753Z,5.47
2023-05-18T06:00:35.865Z,5.57
2023-05-18T06:03:37.788Z,6.27
2023-05-18T06:06:40.031Z,6.50
2023-05-18T06:09:42.023Z,6.90
2023-05-18T06:12:44.058Z,7.50
2023-05-18T06:15:45.920Z,6.70
2023-05-18T06:18:49.657Z,6.30
2023-05-18T06:21:51.764Z,6.37
2023-05-18T06:24:53.715Z,5.67
2023-05-18T06:27:55.742Z,6.00
2023-05-18T06:30:59.087Z,5.40
2023-05-18T06:34:01.348Z,5.60
2023-05-18T06:37:04.166Z,5.83
2023-05-18T06:40:10.202Z,7.60
2023-05-18T06:43:12.061Z,7.07
2023-05-18T06:46:24.456Z,6.27
2023-05-18T06:49:26.559Z,5.30
2023-05-18T06:52:28.489Z,6.03
2023-05-18T06:55:31.070Z,5.80
2023-05-18T06:58:33.374Z,5.20
2023-05-18T07:01:35.755Z,6.60
2023-05-18T07:04:37.873Z,6.63
2023-05-18T07:07:39.852Z,7.43
2023-05-18T07:10:41.797Z,7.80
2023-05-18T07:13:43.852Z,7.13
2023-05-18T07:16:47.610Z,7.30
2023-05-18T07:19:49.961Z,4.67
2023-05-18T07:22:52.058Z,5.13
2023-05-18T07:25:53.946Z,5.07
2023-05-18T07:28:55.931Z,8.37
2023-05-18T07:31:58.048Z,5.53
2023-05-18T07:35:00.021Z,9.27
2023-05-18T07:38:02.216Z,8.87
2023-05-18T07:41:04.099Z,13.67
2023-05-18T07:44:06.021Z,6.67
2023-05-18T07:47:08.058Z,4.70
2023-05-18T07:50:13.044Z,4.63
2023-05-18T07:53:14.970Z,4.47
2023-05-18T07:56:17.584Z,4.93
2023-05-18T07:59:20.271Z,5.40
2023-05-18T08:02:22.286Z,4.80
2023-05-18T08:05:24.245Z,4.63
2023-05-18T08:08:26.542Z,4.50
2023-05-18T08:11:28.916Z,3.27
2023-05-18T08:14:30.967Z,3.60
2023-05-18T08:17:32.878Z,3.47
2023-05-18T08:20:34.988Z,3.57
2023-05-18T08:23:37.240Z,3.33
2023-05-18T08:26:39.280Z,2.97
2023-05-18T08:29:41.348Z,3.17
2023-05-18T08:32:44.048Z,3.23
2023-05-18T08:35:45.995Z,3.13
2023-05-18T08:38:48.032Z,3.20
2023-05-18T08:42:06.313Z,5.37
2023-05-18T08:45:24.083Z,4.20
2023-05-18T08:48:28.413Z,3.20
2023-05-18T08:51:34.683Z,3.23
2023-05-18T08:54:37.352Z,3.27
2023-05-18T08:57:40.878Z,3.30
2023-05-18T09:00:43.213Z,3.30
2023-05-18T09:03:49.582Z,3.30
2023-05-18T09:06:55.397Z,3.13
2023-05-18T09:09:57.931Z,2.70
2023-05-18T09:13:00.587Z,2.90
2023-05-18T09:16:03.261Z,2.73
2023-05-18T09:19:05.547Z,2.47
2023-05-18T09:22:07.680Z,2.90
2023-05-18T09:25:10.427Z,2.63
2023-05-18T09:28:37.559Z,2.87
2023-05-18T09:31:39.661Z,2.00
2023-05-18T09:34:42.854Z,2.97
2023-05-18T09:37:44.975Z,2.70
2023-05-18T09:40:46.990Z,2.53
2023-05-18T09:43:49.413Z,2.67
2023-05-18T09:46:56.774Z,3.17
2023-05-18T09:49:58.738Z,2.70
2023-05-18T09:53:00.898Z,3.10
2023-05-18T09:56:12.196Z,3.27
2023-05-18T09:59:16.295Z,2.20
2023-05-18T10:02:19.635Z,2.60
2023-05-18T10:05:23.278Z,2.63
2023-05-18T10:08:25.296Z,2.17
2023-05-18T10:11:32.044Z,2.63
2023-05-18T10:14:36.791Z,2.47
2023-05-18T10:17:39.589Z,2.87
2023-05-18T10:20:42.664Z,2.50
2023-05-18T10:23:47.218Z,2.80
2023-05-18T10:26:51.210Z,2.60
2023-05-18T10:29:58.213Z,3.20
2023-05-18T10:33:01.653Z,2.10
2023-05-18T10:36:07.288Z,2.63
2023-05-18T10:39:10.472Z,2.47
2023-05-18T10:42:13.418Z,2.40
2023-05-18T10:45:15.760Z,2.30
2023-05-18T10:48:18.038Z,2.63
2023-05-18T10:51:20.741Z,2.20
2023-05-18T10:54:26.227Z,2.50
2023-05-18T10:57:37.281Z,2.40
2023-05-18T11:00:41.136Z,2.37
2023-05-18T11:03:49.183Z,2.53
2023-05-18T11:06:55.478Z,2.20
2023-05-18T11:09:57.423Z,2.60
2023-05-18T11:13:02.625Z,2.00
2023-05-18T11:16:08.468Z,1.80
2023-05-18T11:19:12.227Z,2.10
2023-05-18T11:22:14.361Z,2.07
2023-05-18T11:25:28.805Z,2.30
2023-05-18T11:28:32.069Z,2.47
2023-05-18T11:31:46.282Z,2.20
2023-05-18T11:34:54.744Z,1.87
2023-05-18T11:38:07.309Z,1.80
2023-05-18T11:41:26.984Z,2.30
2023-05-18T11:44:30.115Z,1.90
2023-05-18T11:47:32.606Z,1.70
2023-05-18T11:50:35.081Z,1.90
2023-05-18T11:53:37.124Z,2.10
2023-05-18T11:56:42.218Z,2.10
2023-05-18T11:59:47.151Z,1.93
2023-05-18T12:02:49.935Z,1.60
2023-05-18T12:05:52.741Z,2.17
2023-05-18T12:08:56.192Z,1.70
2023-05-18T12:11:58.375Z,1.80
2023-05-18T12:15:02.484Z,2.00
2023-05-18T12:18:04.670Z,2.00
2023-05-18T12:21:07.754Z,1.80
2023-05-18T12:24:10.137Z,2.50
2023-05-18T12:27:13.648Z,2.00
2023-05-18T12:30:23.185Z,3.10
2023-05-18T12:33:25.284Z,3.20
2023-05-18T12:36:27.656Z,3.30
2023-05-18T12:39:29.764Z,4.30
2023-05-18T12:42:32.231Z,3.90
2023-05-18T12:45:34.991Z,3.60
2023-05-18T12:48:38.968Z,2.60
2023-05-18T12:51:41.042Z,3.30
2023-05-18T12:55:01.092Z,2.43
2023-05-18T12:58:04.873Z,2.53
2023-05-18T13:01:12.835Z,2.97
2023-05-18T13:04:16.249Z,2.87
2023-05-18T13:07:18.160Z,2.60
2023-05-18T13:10:20.699Z,2.87
2023-05-18T13:13:22.724Z,2.70
2023-05-18T13:16:26.258Z,2.50
2023-05-18T13:19:28.352Z,2.60
2023-05-18T13:22:30.558Z,2.53
2023-05-18T13:25:32.942Z,2.30
2023-05-18T13:28:37.354Z,2.97
2023-05-18T13:31:39.391Z,2.53
2023-05-18T13:34:43.234Z,2.80
2023-05-18T13:37:48.947Z,2.60
2023-05-18T13:40:50.801Z,2.53
2023-05-18T13:43:52.814Z,2.30
2023-05-18T13:46:54.747Z,2.37
2023-05-18T13:49:57.073Z,2.87
2023-05-18T13:52:59.077Z,2.30
2023-05-18T13:56:01.407Z,2.30
2023-05-18T13:59:03.737Z,2.20
2023-05-18T14:02:05.844Z,1.83
2023-05-18T14:05:11.314Z,1.90
2023-05-18T14:08:13.479Z,2.10
2023-05-18T14:11:15.504Z,1.90
2023-05-18T14:14:17.723Z,2.30
2023-05-18T14:17:19.688Z,1.83
2023-05-18T14:20:22.181Z,1.97
2023-05-18T14:23:24.685Z,2.20
2023-05-18T14:26:27.888Z,1.53
2023-05-18T14:29:29.882Z,1.90
2023-05-18T14:32:32.074Z,2.10
2023-05-18T14:35:34.586Z,2.20
2023-05-18T14:38:36.577Z,2.13
2023-05-18T14:41:38.528Z,2.20
2023-05-18T14:44:40.627Z,2.20
2023-05-18T14:47:42.543Z,2.23
2023-05-18T14:50:45.134Z,1.80
2023-05-18T14:53:47.766Z,2.33
2023-05-18T14:56:50.202Z,2.37
2023-05-18T14:59:52.525Z,1.70
2023-05-18T15:02:54.934Z,1.93
2023-05-18T15:05:57.141Z,1.40
2023-05-18T15:08:59.099Z,1.87
2023-05-18T15:12:01.234Z,2.20
2023-05-18T15:15:03.270Z,2.20
2023-05-18T15:18:05.256Z,1.87
2023-05-18T15:21:07.955Z,1.90
2023-05-18T15:24:09.814Z,2.00
2023-05-18T15:27:12.379Z,1.90
2023-05-18T15:30:14.280Z,1.67
2023-05-18T15:33:16.319Z,2.20
2023-05-18T15:36:18.263Z,2.10
2023-05-18T15:39:20.278Z,1.77
2023-05-18T15:42:22.662Z,2.20
2023-05-18T15:45:25.159Z,2.33
2023-05-18T15:48:27.529Z,1.73
2023-05-18T15:51:29.541Z,2.17
2023-05-18T15:54:31.826Z,2.07
2023-05-18T15:57:33.873Z,1.90
2023-05-18T16:00:36.270Z,2.10
2023-05-18T16:03:38.427Z,2.00
2023-05-18T16:06:40.743Z,2.00
2023-05-18T16:09:42.701Z,2.20
2023-05-18T16:12:44.518Z,1.97
2023-05-18T16:15:46.844Z,1.70
2023-05-18T16:18:50.022Z,1.90
2023-05-18T16:21:52.173Z,2.03
2023-05-18T16:24:54.997Z,1.63
2023-05-18T16:27:57.071Z,2.70
2023-05-18T16:30:59.049Z,2.53
2023-05-18T16:34:01.547Z,2.27
2023-05-18T16:37:03.495Z,1.93
2023-05-18T16:40:07.351Z,1.63
2023-05-18T16:43:09.743Z,1.73
2023-05-18T16:46:12.911Z,1.77
2023-05-18T16:49:14.858Z,2.00
2023-05-18T16:52:19.208Z,1.90
2023-05-18T16:55:21.308Z,1.80
2023-05-18T16:58:23.264Z,2.37
2023-05-18T17:01:28.777Z,2.43
2023-05-18T17:04:31.215Z,1.93
2023-05-18T17:07:33.936Z,2.70
2023-05-18T17:10:36.123Z,2.87
2023-05-18T17:13:38.621Z,2.40
2023-05-18T17:16:41.224Z,2.33
2023-05-18T17:19:44.160Z,2.03
2023-05-18T17:22:46.153Z,1.90
2023-05-18T17:25:48.579Z,2.07
2023-05-18T17:28:50.528Z,2.07
2023-05-18T17:31:53.490Z,1.90
2023-05-18T17:34:55.642Z,1.83
2023-05-18T17:37:58.134Z,1.90
2023-05-18T17:40:59.995Z,1.80
2023-05-18T17:44:02.045Z,1.83
2023-05-18T17:47:04.345Z,1.77
2023-05-18T17:50:07.302Z,1.97
2023-05-18T17:53:09.230Z,2.00
2023-05-18T17:56:12.722Z,1.97
2023-05-18T17:59:14.586Z,2.23
2023-05-18T18:02:17.330Z,1.90
2023-05-18T18:05:19.326Z,2.00
2023-05-18T18:08:21.245Z,2.23
2023-05-18T18:11:25.935Z,1.77
2023-05-18T18:14:28.803Z,1.70
2023-05-18T18:17:31.609Z,2.10
2023-05-18T18:20:37.176Z,1.90
2023-05-18T18:23:40.283Z,2.00
2023-05-18T18:26:42.417Z,2.27
2023-05-18T18:29:44.443Z,1.80
2023-05-18T18:32:46.380Z,2.70
2023-05-18T18:35:48.921Z,2.40
2023-05-18T18:38:51.008Z,1.70
2023-05-18T18:41:52.874Z,2.17
2023-05-18T18:44:56.991Z,2.10
2023-05-18T18:47:59.635Z,2.13
2023-05-18T18:51:02.198Z,2.07
2023-05-18T18:54:04.281Z,1.70
2023-05-18T18:57:06.576Z,2.43
2023-05-18T19:00:11.331Z,1.90
2023-05-18T19:03:17.589Z,1.87
2023-05-18T19:06:20.561Z,1.87
2023-05-18T19:09:23.192Z,1.77
2023-05-18T19:12:25.146Z,1.60
2023-05-18T19:15:27.122Z,1.93
2023-05-18T19:18:29.051Z,1.77
2023-05-18T19:21:31.826Z,1.90
2023-05-18T19:24:34.794Z,1.53
2023-05-18T19:27:36.839Z,1.93
2023-05-18T19:30:38.807Z,2.17
2023-05-18T19:33:40.830Z,1.67
2023-05-18T19:36:43.053Z,2.30
2023-05-18T19:39:44.957Z,2.00
2023-05-18T19:42:46.997Z,1.97
2023-05-18T19:45:50.446Z,2.10
2023-05-18T19:48:54.230Z,1.70
2023-05-18T19:51:58.315Z,2.23
2023-05-18T19:55:05.283Z,2.40
2023-05-18T19:58:08.047Z,2.10
2023-05-18T20:01:12.997Z,2.00
2023-05-18T20:04:15.461Z,2.17
2023-05-18T20:07:18.309Z,2.63
2023-05-18T20:10:21.129Z,2.00
2023-05-18T20:13:24.015Z,2.60
2023-05-18T20:16:29.351Z,2.80
2023-05-18T20:19:32.010Z,2.50
2023-05-18T20:22:33.996Z,2.77
2023-05-18T20:25:36.604Z,2.20
2023-05-18T20:28:38.976Z,2.90
2023-05-18T20:31:41.078Z,2.77
2023-05-18T20:34:45.147Z,2.60
2023-05-18T20:37:47.194Z,2.57
2023-05-18T20:40:51.499Z,2.70
2023-05-18T20:43:53.617Z,2.40
2023-05-18T20:46:55.634Z,2.80
2023-05-18T20:49:58.909Z,2.77
2023-05-18T20:53:03.684Z,2.97
2023-05-18T20:56:07.298Z,2.73
2023-05-18T20:59:10.258Z,3.50
2023-05-18T21:02:12.348Z,2.57
2023-05-18T21:05:14.815Z,3.10
2023-05-18T21:08:16.721Z,3.27
2023-05-18T21:11:19.399Z,3.00
2023-05-18T21:14:21.281Z,3.20
2023-05-18T21:17:23.202Z,2.97
2023-05-18T21:20:25.471Z,3.33
2023-05-18T21:23:27.389Z,2.90
2023-05-18T21:26:29.594Z,3.17
2023-05-18T21:29:31.454Z,3.43
2023-05-18T21:32:33.992Z,3.30
2023-05-18T21:35:36.122Z,2.93
2023-05-18T21:38:39.691Z,3.60
2023-05-18T21:41:42.791Z,2.90
2023-05-18T21:44:45.181Z,3.33
2023-05-18T21:47:50.075Z,3.17
2023-05-18T21:50:52.474Z,3.33
2023-05-18T21:53:54.394Z,3.20
2023-05-18T21:56:56.356Z,3.03
2023-05-18T21:59:58.302Z,3.83
2023-05-18T22:03:00.233Z,3.80
2023-05-18T22:06:02.631Z,3.90
2023-05-18T22:09:04.648Z,3.30
2023-05-18T22:12:06.792Z,3.50
2023-05-18T22:15:10.624Z,2.83
2023-05-18T22:18:12.898Z,2.77
2023-05-18T22:21:15.043Z,2.57
2023-05-18T22:24:17.072Z,3.20
2023-05-18T22:27:19.542Z,3.23
2023-05-18T22:30:24.135Z,3.37
2023-05-18T22:33:26.458Z,4.00
2023-05-18T22:36:29.784Z,2.83
2023-05-18T22:39:32.506Z,3.63
2023-05-18T22:42:34.975Z,3.37
2023-05-18T22:45:37.574Z,3.07
2023-05-18T22:48:39.760Z,3.00
2023-05-18T22:51:41.692Z,3.57
2023-05-18T22:54:43.642Z,2.93
2023-05-18T22:57:46.128Z,3.67
2023-05-18T23:00:48.103Z,3.40
2023-05-18T23:03:50.141Z,3.30
2023-05-18T23:06:54.514Z,3.10
2023-05-18T23:09:56.458Z,3.40
2023-05-18T23:12:58.636Z,3.60
2023-05-18T23:16:01.218Z,4.07
2023-05-18T23:19:03.525Z,3.50
2023-05-18T23:22:06.180Z,3.27
2023-05-18T23:25:10.144Z,3.73
2023-05-18T23:28:12.215Z,3.17
2023-05-18T23:31:14.106Z,4.13
2023-05-18T23:34:17.084Z,3.63
2023-05-18T23:37:21.102Z,3.57
2023-05-18T23:40:23.599Z,4.10
2023-05-18T23:43:25.854Z,4.00
2023-05-18T23:46:28.250Z,3.80
2023-05-18T23:49:30.475Z,3.83
2023-05-18T23:52:34.005Z,3.67
2023-05-18T23:55:37.336Z,4.13
2023-05-18T23:58:42.475Z,3.80
